Het weer levert geen direct gevaar op.    Er zijn geen waarschuwingen afgegeven.

Regen radar Meer informatie rain snow radar


Bezoek onze andere website:

Template documentation
and downloads

And another site

EUWEATHER.EU


U vindt ons ook hier:

Het Weer Aktueel

UK Metoffice

European Weather Network

WeatherCloud

Weather Underground

Benelux Weer Netwerk

AWEKAS

WeatherlinkIP

HAMweather, WeatherForYou, PWS Weather

Wetter.com



METAR rapporten vliegvelden

   
EBAW - Antwerp
Gewijzigd: 19-01-2021 16:20
Bewolking  
Bewolking  
   Wind: ZW 22.2 km/h
Wind: ZW 22.2 km/h
Temperatuur: 9°C
Voelt als: 6°C
Dauwpunt: 7°C
Vochtigheid: 87%
Barometer: 1007 hPa
Bewolking: Bewolking
Zicht: meer dan 10 km
Bewolking: Grotendeels bewolkt 1100 ft,
Bewolking 1800 ft
EBAW 191520Z 23012KT 9999 BKN011 OVC018 09/07 Q1007 NOSIG
EBLG - Li├Ęge
Gewijzigd: 19-01-2021 16:20
Grotendeels bewolkt  
Grotendeels bewolkt  
   Wind: ZZW 31.5 km/h
Wind: ZZW 31.5 km/h
Temperatuur: 6°C
Voelt als: 1°C
Dauwpunt: 5°C
Vochtigheid: 93%
Barometer: 1009 hPa
Bewolking: Grotendeels bewolkt
Zicht: meer dan 10 km
Bewolking: Gedeeltelijk bewolkt 400 ft,
Grotendeels bewolkt 600 ft
EBLG 191520Z 21017KT 9999 SCT004 BKN006 06/05 Q1009 TEMPO 4000 RADZ BKN004
EBCV - Mons/Bergen
Gewijzigd: 19-01-2021 16:33
Bewolking  
Bewolking  
   Wind: ZZW 29.6 km/h
Wind: ZZW 29.6 km/h
Temperatuur: 7°C
Voelt als: 3°C
Dauwpunt: 6°C
Vochtigheid: 93%
Barometer: 1009 hPa
Bewolking: Bewolking
Zicht: 2 km
Bewolking: Bewolking 700 ft
EBCV 191533Z AUTO 21016KT 2100 OVC007/// 07/06 Q1009 YLO
EHBK - Maastricht
Gewijzigd: 19-01-2021 16:25
Grotendeels bewolkt  
Grotendeels bewolkt  
   Wind: ZW 33.3 km/h
Wind: ZW 33.3 km/h
Temperatuur: 7°C
Voelt als: 2°C
Dauwpunt: 6°C
Vochtigheid: 93%
Barometer: 1008 hPa
Bewolking: Grotendeels bewolkt
Zicht: meer dan 10 km
Bewolking: Gedeeltelijk bewolkt 600 ft,
Grotendeels bewolkt 800 ft,
Grotendeels bewolkt 900 ft
EHBK 191525Z AUTO 22018KT 9999 SCT006 BKN008 BKN009 07/06 Q1008 TEMPO 7000 RADZ BKN012
ELLX - Luxemburg
Gewijzigd: 19-01-2021 16:20
Wat regen mogelijk, Grotendeels bewolkt  
Wat regen mogelijk, Grotendeels bewolkt  
   Wind: ZW 20.4 km/h
Wind: ZW 20.4 km/h
Temperatuur: 2°C
Voelt als: -3°C
Dauwpunt: 2°C
Vochtigheid: 100%
Barometer: 1012 hPa
Bewolking: Grotendeels bewolkt
Zicht: 6 km
Bewolking: Gedeeltelijk bewolkt 400 ft,
Grotendeels bewolkt 500 ft
ELLX 191520Z 22011KT 6000 -RA SCT004 BKN005 02/02 Q1012 TEMPO 22015G25KT 3000 -RADZ BKN004
EBOS - Oostende
Gewijzigd: 19-01-2021 16:20
Grotendeels bewolkt  
Grotendeels bewolkt  
   Wind: ZW 31.5 km/h
Wind: ZW 31.5 km/h
Temperatuur: 9°C
Voelt als: 5°C
Dauwpunt: 7°C
Vochtigheid: 87%
Barometer: 1007 hPa
Bewolking: Grotendeels bewolkt
Zicht: meer dan 10 km
Bewolking: Licht bewolkt 1200 ft,
Gedeeltelijk bewolkt 1700 ft,
Grotendeels bewolkt 3400 ft
EBOS 191520Z 22017KT 9999 FEW012 SCT017 BKN034 09/07 Q1007 TEMPO 24018G28KT

Script ontwikkeld door  Saratoga-weather.org Aangepast voor de template door  Weerstation Leuven

Apparatuur in gebruik:

Weerstation
Davis VP2

Weerprogramma
Meteobridge

Weercomputer
Asus WL -330N3G

Webleverancier
Onecom

Davis VP2

Meteobridge

Asus WL -330N3G

Onecom